logo
Rechercher aéroport 
image banner adimage banner adimage banner ad
image banner ad

NVVF - Futuna

Situé à , Vanuatu

ICAO - NVVF, IATA - FTA

Données fournies par Airmate  

Information générale

Coordonnées: S19°30'54" E170°13'52"
Élévation : 93 feet MSL.
 
Voir autres Aéroports à Tafea

Données opérationnelles

Special qualification required
Heure actuelle UTC:
Heure actuelle locale:
Météo à : - ( 0 km )
METAR: PAMY 222323Z AUTO 30008KT 1/2SM -RA FG OVC003 02/01 A2978 RMK AO2 UPB07E23RAB23 CIG 002V006 P0000 FZRANO $
Voir NOTAMs / SUP AIP / TFR affectant cet aéroport [VIEW]
Fréquences de communication: [VIEW]

Pistes:

Identifiant RWYQFULongueur (ft)Largeur (ft)SurfaceLDA (ft)
14190366Coral
32190366Coral

Coordonnées de l'aéroport

Adresse: Vanuatu

Vue satellite de NVVF